createdAt,value
2022-10-18T00:00:57.162Z,1.15
2022-10-18T00:03:24.795Z,1.67
2022-10-18T00:05:52.576Z,2.08
2022-10-18T00:08:21.125Z,1.92
2022-10-18T00:10:48.930Z,1.63
2022-10-18T00:13:16.471Z,2.00
2022-10-18T00:15:55.916Z,1.92
2022-10-18T00:18:23.978Z,1.67
2022-10-18T00:21:03.341Z,2.05
2022-10-18T00:23:32.336Z,2.35
2022-10-18T00:26:29.831Z,1.30
2022-10-18T00:29:02.642Z,1.40
2022-10-18T00:31:36.318Z,1.92
2022-10-18T00:34:07.307Z,1.20
2022-10-18T00:36:35.119Z,1.17
2022-10-18T00:39:04.411Z,1.30
2022-10-18T00:41:33.249Z,1.40
2022-10-18T00:44:06.619Z,2.08
2022-10-18T00:46:36.958Z,2.35
2022-10-18T00:49:30.329Z,2.88
2022-10-18T00:52:01.430Z,2.17
2022-10-18T00:54:31.135Z,2.08
2022-10-18T00:56:59.160Z,1.92
2022-10-18T00:59:26.914Z,2.30
2022-10-18T01:01:54.625Z,2.05
2022-10-18T01:04:22.883Z,1.75
2022-10-18T01:07:04.313Z,1.08
2022-10-18T01:10:00.934Z,1.00
2022-10-18T01:12:43.332Z,0.98
2022-10-18T01:15:31.106Z,0.88
2022-10-18T01:18:09.490Z,1.15
2022-10-18T01:21:09.256Z,0.70
2022-10-18T01:23:46.031Z,1.30
2022-10-18T01:26:35.745Z,0.80
2022-10-18T01:29:19.668Z,0.77
2022-10-18T01:31:48.603Z,0.80
2022-10-18T01:34:18.665Z,0.77
2022-10-18T01:36:50.951Z,0.88
2022-10-18T01:39:31.490Z,1.05
2022-10-18T01:42:01.825Z,0.95
2022-10-18T01:44:32.835Z,0.60
2022-10-18T01:47:01.307Z,0.73
2022-10-18T01:49:28.564Z,0.65
2022-10-18T01:51:55.992Z,0.82
2022-10-18T01:54:39.955Z,1.08
2022-10-18T01:57:32.729Z,0.60
2022-10-18T02:00:19.495Z,0.60
2022-10-18T02:03:05.238Z,0.60
2022-10-18T02:05:48.417Z,0.73
2022-10-18T02:08:33.723Z,0.68
2022-10-18T02:11:07.379Z,0.52
2022-10-18T02:14:00.695Z,0.70
2022-10-18T02:16:37.923Z,0.68
2022-10-18T02:19:15.689Z,0.70
2022-10-18T02:21:45.922Z,0.60
2022-10-18T02:24:15.419Z,0.50
2022-10-18T02:26:43.063Z,0.70
2022-10-18T02:29:11.135Z,0.50
2022-10-18T02:31:46.012Z,0.73
2022-10-18T02:34:25.800Z,0.50
2022-10-18T02:36:56.849Z,0.57
2022-10-18T02:39:40.908Z,0.60
2022-10-18T02:42:11.382Z,0.50
2022-10-18T02:44:39.298Z,0.60
2022-10-18T02:47:08.289Z,0.50
2022-10-18T02:49:35.656Z,0.85
2022-10-18T02:52:03.141Z,0.60
2022-10-18T02:54:30.449Z,0.77
2022-10-18T02:56:57.867Z,0.50
2022-10-18T02:59:25.276Z,0.45
2022-10-18T03:01:52.815Z,0.60
2022-10-18T03:04:20.306Z,0.50
2022-10-18T03:06:47.809Z,0.60
2022-10-18T03:09:15.167Z,0.40
2022-10-18T03:11:42.601Z,0.70
2022-10-18T03:14:10.032Z,0.40
2022-10-18T03:16:37.418Z,0.50
2022-10-18T03:19:04.757Z,0.40
2022-10-18T03:21:32.044Z,0.55
2022-10-18T03:23:59.919Z,0.50
2022-10-18T03:26:27.209Z,0.60
2022-10-18T03:28:54.787Z,0.80
2022-10-18T03:31:22.245Z,0.60
2022-10-18T03:33:49.839Z,0.50
2022-10-18T03:36:17.342Z,0.43
2022-10-18T03:38:44.782Z,0.50
2022-10-18T03:41:12.263Z,0.55
2022-10-18T03:43:39.662Z,0.73
2022-10-18T03:46:10.525Z,0.50
2022-10-18T03:48:38.576Z,0.50
2022-10-18T03:51:06.155Z,0.55
2022-10-18T03:53:33.500Z,0.60
2022-10-18T03:56:00.901Z,0.40
2022-10-18T03:58:28.417Z,0.43
2022-10-18T04:00:55.941Z,0.50
2022-10-18T04:03:23.765Z,0.40
2022-10-18T04:05:51.510Z,0.40
2022-10-18T04:08:19.194Z,0.50
2022-10-18T04:10:47.257Z,0.40
2022-10-18T04:13:14.796Z,0.38
2022-10-18T04:15:43.087Z,0.50
2022-10-18T04:18:10.588Z,0.47
2022-10-18T04:20:38.077Z,0.60
2022-10-18T04:23:05.500Z,0.30
2022-10-18T04:25:33.005Z,0.40
2022-10-18T04:28:00.534Z,0.50
2022-10-18T04:30:27.972Z,0.45
2022-10-18T04:32:55.457Z,0.50
2022-10-18T04:35:24.728Z,0.40
2022-10-18T04:37:52.249Z,0.50
2022-10-18T04:40:20.219Z,0.50
2022-10-18T04:42:47.936Z,0.40
2022-10-18T04:45:15.451Z,0.55
2022-10-18T04:47:42.753Z,0.47
2022-10-18T04:50:10.140Z,0.30
2022-10-18T04:52:37.602Z,0.47
2022-10-18T04:55:05.251Z,0.60
2022-10-18T04:57:32.698Z,0.90
2022-10-18T05:00:00.105Z,0.43
2022-10-18T05:02:27.485Z,0.40
2022-10-18T05:04:54.721Z,0.40
2022-10-18T05:07:21.949Z,0.32
2022-10-18T05:09:49.263Z,0.50
2022-10-18T05:12:16.547Z,0.47
2022-10-18T05:14:43.742Z,0.50
2022-10-18T05:17:10.958Z,0.57
2022-10-18T05:19:38.164Z,0.60
2022-10-18T05:22:05.391Z,0.73
2022-10-18T05:24:32.775Z,0.77
2022-10-18T05:26:59.973Z,0.40
2022-10-18T05:31:59.431Z,0.52
2022-10-18T05:34:27.423Z,0.65
2022-10-18T05:36:54.696Z,0.50
2022-10-18T05:39:22.070Z,0.40
2022-10-18T05:41:49.370Z,0.50
2022-10-18T05:44:16.675Z,0.60
2022-10-18T05:46:44.013Z,0.40
2022-10-18T05:49:13.184Z,0.40
2022-10-18T05:51:40.542Z,0.50
2022-10-18T05:54:08.042Z,0.30
2022-10-18T05:56:35.335Z,0.60
2022-10-18T05:59:05.176Z,0.50
2022-10-18T06:01:32.422Z,0.50
2022-10-18T06:03:59.673Z,0.38
2022-10-18T06:06:27.056Z,0.55
2022-10-18T06:08:54.418Z,0.50
2022-10-18T06:11:21.950Z,0.50
2022-10-18T06:13:50.516Z,0.32
2022-10-18T06:16:19.824Z,0.63
2022-10-18T06:18:55.516Z,0.88
2022-10-18T06:21:24.264Z,0.50
2022-10-18T06:23:53.160Z,0.45
2022-10-18T06:26:21.321Z,0.40
2022-10-18T06:28:48.755Z,0.57
2022-10-18T06:31:16.504Z,0.52
2022-10-18T06:33:44.115Z,0.47
2022-10-18T06:36:17.410Z,0.50
2022-10-18T06:38:45.072Z,0.43
2022-10-18T06:41:12.427Z,0.52
2022-10-18T06:43:39.794Z,0.40
2022-10-18T06:46:08.544Z,0.50
2022-10-18T06:48:36.857Z,0.55
2022-10-18T06:51:06.631Z,0.50
2022-10-18T06:53:44.261Z,0.52
2022-10-18T06:56:20.778Z,0.52
2022-10-18T06:58:48.027Z,0.50
2022-10-18T07:01:17.820Z,0.50
2022-10-18T07:03:47.996Z,0.50
2022-10-18T07:06:18.031Z,0.60
2022-10-18T07:08:45.669Z,0.60
2022-10-18T07:11:18.780Z,0.52
2022-10-18T07:13:46.113Z,0.70
2022-10-18T07:16:18.161Z,0.65
2022-10-18T07:18:51.282Z,0.63
2022-10-18T07:21:21.366Z,0.50
2022-10-18T07:23:49.238Z,0.70
2022-10-18T07:26:25.607Z,0.68
2022-10-18T07:29:00.589Z,0.60
2022-10-18T07:31:29.414Z,0.60
2022-10-18T07:34:20.556Z,0.57
2022-10-18T07:36:47.909Z,0.50
2022-10-18T07:39:15.298Z,0.60
2022-10-18T07:41:42.588Z,0.80
2022-10-18T07:44:09.946Z,0.65
2022-10-18T07:46:37.266Z,0.60
2022-10-18T07:49:04.910Z,0.88
2022-10-18T07:51:32.954Z,0.70
2022-10-18T07:54:00.312Z,0.70
2022-10-18T07:56:27.688Z,0.70
2022-10-18T07:58:56.776Z,0.80
2022-10-18T08:01:25.226Z,0.60
2022-10-18T08:03:53.624Z,0.95
2022-10-18T08:06:22.792Z,0.80
2022-10-18T08:08:50.638Z,1.08
2022-10-18T08:11:20.322Z,0.90
2022-10-18T08:13:48.558Z,1.38
2022-10-18T08:16:18.545Z,0.88
2022-10-18T08:18:46.100Z,1.00
2022-10-18T08:21:15.287Z,1.30
2022-10-18T08:23:43.232Z,1.20
2022-10-18T08:26:13.598Z,1.30
2022-10-18T08:28:46.036Z,1.98
2022-10-18T08:31:21.049Z,1.42
2022-10-18T08:33:48.347Z,1.42
2022-10-18T08:36:17.375Z,1.10
2022-10-18T08:38:44.986Z,1.33
2022-10-18T08:41:23.502Z,1.67
2022-10-18T08:44:11.756Z,2.05
2022-10-18T08:46:42.667Z,1.63
2022-10-18T08:49:18.866Z,2.67
2022-10-18T08:51:49.434Z,2.83
2022-10-18T08:54:31.241Z,3.90
2022-10-18T08:57:05.170Z,2.85
2022-10-18T08:59:39.657Z,2.28
2022-10-18T09:02:40.307Z,2.03
2022-10-18T09:05:45.159Z,2.45
2022-10-18T09:08:15.103Z,1.60
2022-10-18T09:11:01.041Z,2.58
2022-10-18T09:13:57.133Z,1.85
2022-10-18T09:16:56.409Z,2.25
2022-10-18T09:19:32.737Z,2.20
2022-10-18T09:22:12.534Z,1.52
2022-10-18T09:24:43.898Z,2.28
2022-10-18T09:27:19.515Z,1.83
2022-10-18T09:30:09.819Z,1.95
2022-10-18T09:33:01.504Z,2.20
2022-10-18T09:35:33.949Z,1.60
2022-10-18T09:38:09.897Z,1.77
2022-10-18T09:40:47.182Z,1.48
2022-10-18T09:43:22.633Z,0.90
2022-10-18T09:45:52.523Z,1.80
2022-10-18T09:48:31.214Z,1.45
2022-10-18T09:51:03.533Z,1.20
2022-10-18T09:53:52.306Z,1.73
2022-10-18T09:56:26.561Z,1.33
2022-10-18T09:58:53.703Z,0.73
2022-10-18T10:01:29.837Z,1.00
2022-10-18T10:03:57.110Z,1.10
2022-10-18T10:06:28.414Z,1.63
2022-10-18T10:09:07.835Z,1.20
2022-10-18T10:11:45.426Z,1.00
2022-10-18T10:14:26.010Z,0.88
2022-10-18T10:17:06.975Z,1.02
2022-10-18T10:19:40.164Z,1.15
2022-10-18T10:22:12.425Z,1.20
2022-10-18T10:24:49.621Z,1.00
2022-10-18T10:27:46.432Z,0.90
2022-10-18T10:30:35.006Z,0.77
2022-10-18T10:33:03.052Z,0.82
2022-10-18T10:35:53.057Z,0.85
2022-10-18T10:38:31.415Z,0.70
2022-10-18T10:40:59.591Z,1.67
2022-10-18T10:43:43.810Z,0.50
2022-10-18T10:46:13.983Z,0.60
2022-10-18T10:49:13.940Z,0.50
2022-10-18T10:51:43.752Z,0.50
2022-10-18T10:54:24.517Z,0.63
2022-10-18T10:57:00.104Z,0.50
2022-10-18T10:59:34.125Z,0.30
2022-10-18T11:02:19.045Z,0.40
2022-10-18T11:07:43.255Z,0.47
2022-10-18T11:10:10.482Z,0.30
2022-10-18T11:12:49.424Z,0.35
2022-10-18T11:15:38.579Z,0.77
2022-10-18T11:18:14.823Z,0.60
2022-10-18T11:20:53.587Z,0.80
2022-10-18T11:23:24.429Z,0.40
2022-10-18T11:26:13.534Z,0.50
2022-10-18T11:28:59.233Z,1.20
2022-10-18T11:31:44.453Z,0.50
2022-10-18T11:34:56.872Z,0.20
2022-10-18T11:37:48.166Z,0.50
2022-10-18T11:40:46.695Z,0.60
2022-10-18T11:43:57.152Z,0.50
2022-10-18T11:46:54.750Z,0.50
2022-10-18T11:49:24.861Z,0.55
2022-10-18T11:52:07.770Z,0.47
2022-10-18T11:55:17.089Z,0.40
2022-10-18T11:57:57.721Z,0.40
2022-10-18T12:00:28.900Z,0.38
2022-10-18T12:03:24.016Z,0.60
2022-10-18T12:05:53.449Z,0.52
2022-10-18T12:08:23.502Z,0.60
2022-10-18T12:11:09.246Z,0.43
2022-10-18T12:13:50.818Z,0.40
2022-10-18T12:16:38.920Z,0.45
2022-10-18T12:19:23.302Z,0.40
2022-10-18T12:21:55.651Z,0.60
2022-10-18T12:24:30.294Z,0.45
2022-10-18T12:27:00.973Z,0.30
2022-10-18T12:29:44.276Z,0.60
2022-10-18T12:32:18.554Z,0.38
2022-10-18T12:34:58.820Z,0.30
2022-10-18T12:37:41.368Z,0.40
2022-10-18T12:40:24.614Z,1.00
2022-10-18T12:42:53.284Z,0.45
2022-10-18T12:45:35.538Z,0.50
2022-10-18T12:48:06.781Z,0.40
2022-10-18T12:50:39.967Z,0.50
2022-10-18T12:53:10.202Z,0.40
2022-10-18T12:58:24.123Z,0.40
2022-10-18T13:01:02.310Z,0.43
2022-10-18T13:03:43.017Z,0.60
2022-10-18T13:06:10.297Z,0.40
2022-10-18T13:08:41.852Z,0.43
2022-10-18T13:11:09.069Z,0.60
2022-10-18T13:13:48.306Z,0.30
2022-10-18T13:16:27.829Z,0.40
2022-10-18T13:19:15.618Z,0.43
2022-10-18T13:21:42.857Z,1.10
2022-10-18T13:24:30.946Z,0.40
2022-10-18T13:27:39.331Z,0.50
2022-10-18T13:30:18.498Z,0.50
2022-10-18T13:33:23.146Z,0.50
2022-10-18T13:36:01.512Z,0.60
2022-10-18T13:38:47.333Z,0.40
2022-10-18T13:41:22.138Z,0.30
2022-10-18T13:44:04.371Z,0.40
2022-10-18T13:46:34.609Z,1.02
2022-10-18T13:49:14.849Z,0.63
2022-10-18T13:52:00.946Z,0.63
2022-10-18T13:54:49.470Z,0.52
2022-10-18T13:57:42.788Z,0.47
2022-10-18T14:00:18.619Z,0.55
2022-10-18T14:03:01.607Z,0.88
2022-10-18T14:05:55.675Z,0.60
2022-10-18T14:08:45.973Z,0.52
2022-10-18T14:11:30.244Z,0.55
2022-10-18T14:14:20.540Z,0.60
2022-10-18T14:16:54.844Z,0.30
2022-10-18T14:19:38.333Z,0.40
2022-10-18T14:22:25.396Z,0.30
2022-10-18T14:24:57.815Z,0.50
2022-10-18T14:27:32.507Z,0.40
2022-10-18T14:30:10.813Z,0.57
2022-10-18T14:32:38.194Z,0.30
2022-10-18T14:35:32.165Z,0.50
2022-10-18T14:38:00.306Z,0.40
2022-10-18T14:40:32.550Z,0.75
2022-10-18T14:43:06.437Z,0.40
2022-10-18T14:45:33.620Z,0.60
2022-10-18T14:48:13.579Z,0.75
2022-10-18T14:50:42.144Z,0.50
2022-10-18T14:53:22.096Z,0.65
2022-10-18T14:56:00.842Z,0.30
2022-10-18T14:58:28.764Z,0.43
2022-10-18T15:00:56.489Z,0.50
2022-10-18T15:03:24.427Z,0.50
2022-10-18T15:05:59.665Z,0.40
2022-10-18T15:08:38.990Z,0.63
2022-10-18T15:11:10.553Z,0.50
2022-10-18T15:16:38.854Z,0.40
2022-10-18T15:19:23.819Z,0.50
2022-10-18T15:22:08.036Z,0.40
2022-10-18T15:24:41.473Z,0.50
2022-10-18T15:27:28.754Z,0.57
2022-10-18T15:29:56.357Z,0.40
2022-10-18T15:32:29.890Z,0.45
2022-10-18T15:35:23.441Z,0.35
2022-10-18T15:37:54.265Z,0.50
2022-10-18T15:40:24.493Z,0.55
2022-10-18T15:42:53.996Z,0.40
2022-10-18T15:45:24.023Z,0.30
2022-10-18T15:48:06.437Z,0.80
2022-10-18T15:50:47.829Z,0.40
2022-10-18T15:53:25.734Z,0.40
2022-10-18T15:56:11.072Z,0.50
2022-10-18T15:58:45.531Z,0.40
2022-10-18T16:03:49.780Z,0.60
2022-10-18T16:06:18.536Z,0.40
2022-10-18T16:08:52.855Z,0.40
2022-10-18T16:11:25.781Z,0.60
2022-10-18T16:13:56.455Z,0.35
2022-10-18T16:16:28.942Z,0.40
2022-10-18T16:18:57.273Z,0.80
2022-10-18T16:21:36.368Z,0.45
2022-10-18T16:24:04.184Z,0.47
2022-10-18T16:26:31.704Z,0.50
2022-10-18T16:29:00.407Z,0.60
2022-10-18T16:31:30.706Z,0.45
2022-10-18T16:33:58.472Z,0.30
2022-10-18T16:36:30.958Z,0.50
2022-10-18T16:39:01.293Z,0.45
2022-10-18T16:41:28.611Z,0.50
2022-10-18T16:43:56.105Z,0.73
2022-10-18T16:46:29.534Z,0.50
2022-10-18T16:48:57.555Z,0.30
2022-10-18T16:51:25.503Z,0.50
2022-10-18T16:53:53.821Z,0.60
2022-10-18T16:56:32.523Z,0.50
2022-10-18T16:59:00.128Z,0.63
2022-10-18T17:01:27.444Z,0.50
2022-10-18T17:03:55.391Z,0.40
2022-10-18T17:06:29.384Z,1.00
2022-10-18T17:08:57.684Z,0.68
2022-10-18T17:11:27.488Z,0.65
2022-10-18T17:13:55.387Z,0.70
2022-10-18T17:18:58.255Z,0.70
2022-10-18T17:21:27.000Z,0.43
2022-10-18T17:23:55.089Z,0.50
2022-10-18T17:26:29.343Z,0.30
2022-10-18T17:29:03.202Z,0.60
2022-10-18T17:31:31.756Z,0.40
2022-10-18T17:34:01.920Z,0.50
2022-10-18T17:36:31.395Z,0.40
2022-10-18T17:39:02.655Z,0.50
2022-10-18T17:41:31.253Z,0.38
2022-10-18T17:43:59.200Z,0.40
2022-10-18T17:46:27.246Z,0.43
2022-10-18T17:48:55.375Z,0.57
2022-10-18T17:51:23.561Z,0.50
2022-10-18T17:53:51.227Z,0.90
2022-10-18T17:56:18.577Z,0.47
2022-10-18T17:58:47.050Z,0.43
2022-10-18T18:01:23.578Z,0.40
2022-10-18T18:03:51.045Z,0.45
2022-10-18T18:06:24.015Z,0.40
2022-10-18T18:08:51.413Z,0.40
2022-10-18T18:11:18.989Z,0.30
2022-10-18T18:13:46.262Z,0.40
2022-10-18T18:16:22.404Z,0.47
2022-10-18T18:18:52.212Z,0.43
2022-10-18T18:21:19.769Z,0.40
2022-10-18T18:23:47.644Z,0.35
2022-10-18T18:26:17.699Z,0.40
2022-10-18T18:28:45.354Z,0.70
2022-10-18T18:31:16.045Z,0.40
2022-10-18T18:33:43.567Z,0.60
2022-10-18T18:36:11.847Z,0.40
2022-10-18T18:38:42.664Z,0.43
2022-10-18T18:41:14.127Z,0.50
2022-10-18T18:43:45.757Z,0.50
2022-10-18T18:46:13.594Z,0.82
2022-10-18T18:48:41.453Z,0.70
2022-10-18T18:51:13.079Z,0.40
2022-10-18T18:53:41.244Z,0.60
2022-10-18T18:56:11.130Z,0.40
2022-10-18T18:58:40.143Z,0.50
2022-10-18T19:01:09.769Z,0.80
2022-10-18T19:03:38.864Z,0.90
2022-10-18T19:06:14.477Z,0.60
2022-10-18T19:08:45.005Z,0.50
2022-10-18T19:11:19.017Z,0.50
2022-10-18T19:13:47.228Z,0.57
2022-10-18T19:16:18.783Z,0.80
2022-10-18T19:18:56.647Z,0.50
2022-10-18T19:21:25.738Z,0.50
2022-10-18T19:23:53.652Z,0.80
2022-10-18T19:26:37.503Z,0.50
2022-10-18T19:29:11.486Z,0.73
2022-10-18T19:31:39.562Z,1.08
2022-10-18T19:34:09.546Z,1.00
2022-10-18T19:36:38.433Z,0.70
2022-10-18T19:39:07.580Z,1.20
2022-10-18T19:41:35.088Z,0.60
2022-10-18T19:44:02.458Z,0.70
2022-10-18T19:46:29.753Z,0.60
2022-10-18T19:48:57.158Z,0.60
2022-10-18T19:51:27.911Z,0.73
2022-10-18T19:53:56.962Z,0.50
2022-10-18T19:56:25.550Z,0.60
2022-10-18T19:58:53.061Z,1.50
2022-10-18T20:01:21.138Z,0.50
2022-10-18T20:03:48.719Z,0.95
2022-10-18T20:06:16.256Z,0.60
2022-10-18T20:08:44.094Z,0.75
2022-10-18T20:11:14.606Z,0.98
2022-10-18T20:13:42.187Z,0.73
2022-10-18T20:16:12.213Z,0.73
2022-10-18T20:18:39.997Z,0.80
2022-10-18T20:21:08.110Z,0.70
2022-10-18T20:23:36.978Z,1.38
2022-10-18T20:26:06.896Z,0.75
2022-10-18T20:28:35.218Z,0.90
2022-10-18T20:31:03.726Z,0.75
2022-10-18T20:33:31.853Z,0.77
2022-10-18T20:36:10.310Z,0.80
2022-10-18T20:38:39.919Z,0.80
2022-10-18T20:41:10.299Z,0.88
2022-10-18T20:43:38.052Z,0.70
2022-10-18T20:46:06.301Z,0.82
2022-10-18T20:48:34.235Z,1.00
2022-10-18T20:51:09.943Z,0.93
2022-10-18T20:53:37.910Z,0.88
2022-10-18T20:56:08.392Z,0.82
2022-10-18T20:58:37.179Z,0.88
2022-10-18T21:01:18.346Z,0.68
2022-10-18T21:03:47.554Z,1.08
2022-10-18T21:06:20.294Z,0.70
2022-10-18T21:08:48.081Z,1.00
2022-10-18T21:11:15.456Z,0.65
2022-10-18T21:13:42.719Z,0.68
2022-10-18T21:16:10.038Z,0.90
2022-10-18T21:18:40.452Z,0.68
2022-10-18T21:21:16.721Z,0.77
2022-10-18T21:23:44.835Z,1.02
2022-10-18T21:26:25.821Z,0.60
2022-10-18T21:28:59.874Z,0.80
2022-10-18T21:31:30.001Z,0.70
2022-10-18T21:33:59.583Z,0.60
2022-10-18T21:36:30.027Z,0.57
2022-10-18T21:38:58.671Z,0.82
2022-10-18T21:41:26.215Z,0.85
2022-10-18T21:43:55.071Z,0.95
2022-10-18T21:46:24.349Z,1.05
2022-10-18T21:48:53.466Z,0.90
2022-10-18T21:51:23.275Z,1.63
2022-10-18T21:53:53.048Z,0.68
2022-10-18T21:56:22.693Z,0.70
2022-10-18T21:58:50.068Z,0.60
2022-10-18T22:01:20.596Z,0.93
2022-10-18T22:03:52.453Z,0.50
2022-10-18T22:06:20.863Z,0.70
2022-10-18T22:08:51.094Z,0.50
2022-10-18T22:11:21.125Z,0.60
2022-10-18T22:13:48.877Z,0.73
2022-10-18T22:16:17.335Z,0.60
2022-10-18T22:18:46.365Z,0.60
2022-10-18T22:21:15.929Z,0.50
2022-10-18T22:23:46.219Z,0.52
2022-10-18T22:26:28.704Z,0.93
2022-10-18T22:29:05.066Z,0.60
2022-10-18T22:31:35.017Z,0.60
2022-10-18T22:34:05.621Z,0.60
2022-10-18T22:36:34.476Z,0.90
2022-10-18T22:39:02.544Z,0.60
2022-10-18T22:41:29.849Z,0.52
2022-10-18T22:43:59.710Z,0.40
2022-10-18T22:46:30.015Z,0.50
2022-10-18T22:48:57.254Z,0.52
2022-10-18T22:51:24.673Z,0.60
2022-10-18T22:53:52.160Z,0.50
2022-10-18T22:56:22.265Z,0.63
2022-10-18T22:58:50.109Z,0.50
2022-10-18T23:01:20.609Z,0.60
2022-10-18T23:03:53.210Z,0.73
2022-10-18T23:06:25.280Z,0.50
2022-10-18T23:08:54.594Z,1.05
2022-10-18T23:11:22.284Z,0.55
2022-10-18T23:13:50.050Z,0.60
2022-10-18T23:16:17.802Z,0.68
2022-10-18T23:18:49.049Z,0.70
2022-10-18T23:21:16.621Z,0.57
2022-10-18T23:23:44.223Z,0.40
2022-10-18T23:26:14.114Z,0.50
2022-10-18T23:28:43.849Z,0.52
2022-10-18T23:31:19.965Z,0.73
2022-10-18T23:33:49.707Z,0.60
2022-10-18T23:36:17.374Z,0.47
2022-10-18T23:38:45.199Z,0.50
2022-10-18T23:41:13.991Z,0.50
2022-10-18T23:43:42.234Z,0.40
2022-10-18T23:46:10.436Z,0.73
2022-10-18T23:48:37.854Z,0.50
2022-10-18T23:51:05.860Z,0.30
2022-10-18T23:53:33.729Z,0.50
2022-10-18T23:56:07.238Z,0.50
2022-10-18T23:58:36.158Z,0.50
